»·PEaware :: MRR27 ID32-WA23

MRR27 :: ID32-WA23

FLIGHT INFORMATION

Flight Status: Arrived
Operator:
San Juan Airlines
More flights by this operator :: More flights under this callsign
Pilot: Alex L. (5269)
Aircraft: Unknown
(G73)
More flights by this aircraft type
Origin: ID32 Tuka
United States
Destination: WA23 Pine Bluff
United States
More flights between these airports :: More routes between these airports
Route: DCT
File this flight plan on PilotEdge
Remarks: San Juan Virtual Airlines and FSEconomy flight
Altitude:
(Current/Filed)
4,500ft
Speed:
(Current/Filed)
157kts
Departed: 27-Jan-17 10:29 AM
Arrived: 27-Jan-17 11:07 AM
Distance/Time
Traveled:
64nm/0:38
Distance/Time
To Go:
Arrived

Flight Plot

Page will automatically refresh every two minutes.


Map Options




Map Legend


Flown Route
Filed Route
Departure Airport
Arrival Airport
Navaid (VOR, NDB)
Fix

Horizontal Profiles

Position Reports

Time Latitude Longitude Heading Altitude Ground
Speed
27-Jan-17 10:06 48.101485 -116.137053 357 2094ft 0kts
27-Jan-17 10:07 48.101485 -116.137053 357 2094ft 0kts
27-Jan-17 10:08 48.101485 -116.137053 357 2094ft 0kts
27-Jan-17 10:09 48.101485 -116.137053 357 2094ft 0kts
27-Jan-17 10:10 48.101485 -116.137053 357 2094ft 0kts
27-Jan-17 10:11 48.101486 -116.137053 357 2094ft 0kts
27-Jan-17 10:12 48.101486 -116.137053 357 2094ft 0kts
27-Jan-17 10:13 48.101488 -116.137053 357 2094ft 0kts
27-Jan-17 10:14 48.101489 -116.137053 357 2094ft 0kts
27-Jan-17 10:15 48.101489 -116.137053 357 2094ft 0kts
27-Jan-17 10:16 48.101490 -116.137053 357 2094ft 0kts
27-Jan-17 10:17 48.101491 -116.137053 357 2094ft 0kts
27-Jan-17 10:18 48.101492 -116.137053 357 2094ft 0kts
27-Jan-17 10:19 48.101494 -116.137053 357 2094ft 0kts
27-Jan-17 10:20 48.101496 -116.137053 357 2094ft 0kts
27-Jan-17 10:21 48.101499 -116.137053 357 2094ft 0kts
27-Jan-17 10:22 48.101500 -116.137053 357 2094ft 0kts
27-Jan-17 10:23 48.101654 -116.136915 53 2094ft 0kts
27-Jan-17 10:24 48.101655 -116.136914 53 2094ft 0kts
27-Jan-17 10:25 48.101655 -116.136913 53 2094ft 0kts
27-Jan-17 10:26 48.101656 -116.136912 53 2094ft 0kts
27-Jan-17 10:27 48.101656 -116.136911 53 2094ft 0kts
27-Jan-17 10:28 48.101712 -116.136804 48 2094ft 3kts
27-Jan-17 10:29 48.106225 -116.136831 352 2094ft 81kts
27-Jan-17 10:30 48.127154 -116.161417 298 3063ft 121kts
27-Jan-17 10:31 48.143728 -116.205249 302 4319ft 120kts
27-Jan-17 10:32 48.163918 -116.253072 302 4567ft 157kts
27-Jan-17 10:33 48.186498 -116.310584 291 4595ft 161kts
27-Jan-17 10:34 48.172600 -116.370623 228 4593ft 164kts
27-Jan-17 10:35 48.140945 -116.420141 224 4561ft 165kts
27-Jan-17 10:36 48.107644 -116.466026 210 4675ft 158kts
27-Jan-17 10:37 48.063231 -116.473919 178 4555ft 169kts
27-Jan-17 10:38 48.016061 -116.470220 176 4385ft 168kts
27-Jan-17 10:39 47.975160 -116.492939 233 4410ft 160kts
27-Jan-17 10:40 47.972067 -116.558084 277 4384ft 164kts
27-Jan-17 10:41 47.979323 -116.623420 279 4591ft 157kts
27-Jan-17 10:42 47.988081 -116.688627 282 4566ft 165kts
27-Jan-17 10:43 47.997357 -116.755598 279 4494ft 167kts
27-Jan-17 10:44 48.003264 -116.823906 274 4541ft 156kts
27-Jan-17 10:45 48.008983 -116.889121 279 4603ft 164kts
27-Jan-17 10:46 48.016259 -116.957334 286 4408ft 170kts
27-Jan-17 10:47 48.041574 -117.012876 330 4514ft 157kts
27-Jan-17 10:48 48.085059 -117.027739 350 4493ft 164kts
27-Jan-17 10:49 48.130279 -117.040616 348 4425ft 164kts
27-Jan-17 10:50 48.168327 -117.071657 288 4480ft 157kts
27-Jan-17 10:51 48.147863 -117.125551 223 4559ft 162kts
27-Jan-17 10:52 48.115843 -117.173133 224 4599ft 162kts
27-Jan-17 10:53 48.088841 -117.212683 224 4595ft 163kts
27-Jan-17 10:54 48.056615 -117.260475 223 4606ft 163kts
27-Jan-17 10:55 48.017865 -117.314676 222 4618ft 163kts
27-Jan-17 10:56 47.985082 -117.361347 223 4642ft 163kts
27-Jan-17 10:57 47.956661 -117.398557 217 4658ft 163kts
27-Jan-17 10:58 47.936387 -117.452701 292 4695ft 162kts
27-Jan-17 10:59 47.968588 -117.502177 312 4466ft 169kts
27-Jan-17 11:00 47.999839 -117.552272 312 4416ft 153kts
27-Jan-17 11:01 48.023832 -117.597271 294 4300ft 131kts
27-Jan-17 11:02 48.021704 -117.649692 263 4091ft 133kts
27-Jan-17 11:03 48.019642 -117.702105 261 3383ft 103kts
27-Jan-17 11:04 48.012160 -117.735926 246 3019ft 79kts
27-Jan-17 11:05 48.002555 -117.766836 260 2644ft 83kts
27-Jan-17 11:06 48.017256 -117.761969 49 2367ft 85kts
27-Jan-17 11:07 48.021373 -117.735818 78 2029ft 17kts
27-Jan-17 11:08 48.021960 -117.731137 123 2029ft 2kts
27-Jan-17 11:09 48.021670 -117.731004 282 2029ft 0kts
27-Jan-17 11:10 48.021670 -117.731006 282 2029ft 0kts
27-Jan-17 11:11 48.021670 -117.731008 282 2029ft 0kts
27-Jan-17 11:12 48.021670 -117.731009 282 2029ft 0kts
27-Jan-17 11:13 48.021671 -117.731010 282 2029ft 0kts
27-Jan-17 11:14 48.021671 -117.731012 282 2029ft 0kts
27-Jan-17 11:15 48.021671 -117.731013 282 2029ft 0kts
27-Jan-17 11:16 48.021671 -117.731014 282 2029ft 0kts
27-Jan-17 11:17 48.021671 -117.731014 282 2029ft 0kts
27-Jan-17 11:18 48.021671 -117.731014 282 2029ft 0kts
27-Jan-17 11:19 48.021671 -117.731014 282 2029ft 0kts

Navigation Log

Ident Type
Flight plan parsing failed, navigation log unavailable